Terminal Aerodrome Forecast
Issued by NWS

Home | Current Version | Previous Version | Text Only | Print | Product List | Glossary On
Versions: 1 2 3 4 5 6 7 8 9 10 11 12 13 14 15
342
FTAK31 PAJN 291120
TAFASI
TAF
PASI 291120Z 2912/3012 20010KT P6SM OVC015
     FM291600 21006KT P6SM VCSH OVC025
     FM292100 23008KT P6SM BKN025 BKN150
     FM300000 24006KT P6SM BKN015 BKN150
     FM300400 VRB04KT P6SM OVC015=

USA.gov is the U.S. government's official web portal to all federal, state and local government web resources and services.